sensor_id;sensor_type;location;lat;lon;timestamp;P1;durP1;ratioP1;P2;durP2;ratioP2
14528;SDS011;7351;51.194;4.098;2022-12-16T00:02:02;53.47;;;48.17;;
14528;SDS011;7351;51.194;4.098;2022-12-16T00:04:30;49.63;;;42.90;;
14528;SDS011;7351;51.194;4.098;2022-12-16T00:06:57;45.50;;;40.63;;
14528;SDS011;7351;51.194;4.098;2022-12-16T00:09:26;49.10;;;42.47;;
14528;SDS011;7351;51.194;4.098;2022-12-16T00:11:53;48.77;;;43.83;;
14528;SDS011;7351;51.194;4.098;2022-12-16T00:14:21;62.33;;;55.77;;
14528;SDS011;7351;51.194;4.098;2022-12-16T00:16:48;42.50;;;38.00;;
14528;SDS011;7351;51.194;4.098;2022-12-16T00:19:22;42.93;;;36.93;;
14528;SDS011;7351;51.194;4.098;2022-12-16T00:24:55;39.53;;;35.50;;
14528;SDS011;7351;51.194;4.098;2022-12-16T00:27:22;43.97;;;39.07;;
14528;SDS011;7351;51.194;4.098;2022-12-16T00:29:49;40.87;;;36.47;;
14528;SDS011;7351;51.194;4.098;2022-12-16T00:32:16;37.60;;;33.70;;
14528;SDS011;7351;51.194;4.098;2022-12-16T00:34:45;43.37;;;36.20;;
14528;SDS011;7351;51.194;4.098;2022-12-16T00:59:24;42.67;;;38.10;;
14528;SDS011;7351;51.194;4.098;2022-12-16T01:05:24;40.40;;;32.87;;
14528;SDS011;7351;51.194;4.098;2022-12-16T01:11:14;37.33;;;33.50;;
14528;SDS011;7351;51.194;4.098;2022-12-16T01:13:41;41.57;;;37.73;;
14528;SDS011;7351;51.194;4.098;2022-12-16T01:16:10;41.27;;;34.27;;
14528;SDS011;7351;51.194;4.098;2022-12-16T01:18:36;45.10;;;40.70;;
14528;SDS011;7351;51.194;4.098;2022-12-16T01:40:21;30.87;;;27.67;;
14528;SDS011;7351;51.194;4.098;2022-12-16T01:42:50;24.90;;;21.40;;
14528;SDS011;7351;51.194;4.098;2022-12-16T01:48:51;15.03;;;13.47;;
14528;SDS011;7351;51.194;4.098;2022-12-16T01:54:32;15.40;;;11.67;;
14528;SDS011;7351;51.194;4.098;2022-12-16T02:06:36;13.63;;;9.77;;
14528;SDS011;7351;51.194;4.098;2022-12-16T02:09:04;15.83;;;10.73;;
14528;SDS011;7351;51.194;4.098;2022-12-16T02:11:39;14.07;;;12.40;;
14528;SDS011;7351;51.194;4.098;2022-12-16T02:18:09;15.37;;;13.57;;
14528;SDS011;7351;51.194;4.098;2022-12-16T02:34:18;18.70;;;16.90;;
14528;SDS011;7351;51.194;4.098;2022-12-16T02:40:18;23.07;;;20.80;;
14528;SDS011;7351;51.194;4.098;2022-12-16T02:42:56;24.47;;;22.13;;
14528;SDS011;7351;51.194;4.098;2022-12-16T02:45:28;25.40;;;22.60;;
14528;SDS011;7351;51.194;4.098;2022-12-16T02:47:57;26.17;;;22.80;;
14528;SDS011;7351;51.194;4.098;2022-12-16T02:50:27;24.23;;;20.73;;
14528;SDS011;7351;51.194;4.098;2022-12-16T02:52:58;28.13;;;22.60;;
14528;SDS011;7351;51.194;4.098;2022-12-16T02:55:28;22.37;;;20.10;;
14528;SDS011;7351;51.194;4.098;2022-12-16T02:58:01;28.03;;;23.53;;
14528;SDS011;7351;51.194;4.098;2022-12-16T03:00:39;25.53;;;23.10;;
14528;SDS011;7351;51.194;4.098;2022-12-16T03:03:11;28.93;;;26.10;;
14528;SDS011;7351;51.194;4.098;2022-12-16T03:05:47;29.87;;;26.77;;
14528;SDS011;7351;51.194;4.098;2022-12-16T03:08:18;29.07;;;26.20;;
14528;SDS011;7351;51.194;4.098;2022-12-16T03:10:49;28.27;;;25.43;;
14528;SDS011;7351;51.194;4.098;2022-12-16T03:16:09;26.23;;;23.50;;
14528;SDS011;7351;51.194;4.098;2022-12-16T03:18:41;28.03;;;25.20;;
14528;SDS011;7351;51.194;4.098;2022-12-16T03:21:11;29.40;;;26.63;;
14528;SDS011;7351;51.194;4.098;2022-12-16T03:23:45;28.53;;;25.63;;
14528;SDS011;7351;51.194;4.098;2022-12-16T03:28:53;23.90;;;21.60;;
14528;SDS011;7351;51.194;4.098;2022-12-16T03:35:01;24.63;;;22.27;;
14528;SDS011;7351;51.194;4.098;2022-12-16T03:37:40;23.40;;;21.27;;
14528;SDS011;7351;51.194;4.098;2022-12-16T03:40:11;28.03;;;23.10;;
14528;SDS011;7351;51.194;4.098;2022-12-16T03:42:39;24.47;;;22.40;;
14528;SDS011;7351;51.194;4.098;2022-12-16T03:45:10;24.90;;;22.43;;
14528;SDS011;7351;51.194;4.098;2022-12-16T03:47:41;25.53;;;23.10;;
14528;SDS011;7351;51.194;4.098;2022-12-16T03:50:13;24.23;;;22.03;;
14528;SDS011;7351;51.194;4.098;2022-12-16T03:52:42;24.30;;;22.40;;
14528;SDS011;7351;51.194;4.098;2022-12-16T03:55:09;24.20;;;21.87;;
14528;SDS011;7351;51.194;4.098;2022-12-16T03:57:36;22.03;;;19.93;;
14528;SDS011;7351;51.194;4.098;2022-12-16T04:00:04;25.53;;;22.97;;
14528;SDS011;7351;51.194;4.098;2022-12-16T04:02:33;25.33;;;22.70;;
14528;SDS011;7351;51.194;4.098;2022-12-16T04:05:01;22.33;;;20.17;;
14528;SDS011;7351;51.194;4.098;2022-12-16T04:07:28;22.63;;;20.43;;
14528;SDS011;7351;51.194;4.098;2022-12-16T04:09:57;20.47;;;18.37;;
14528;SDS011;7351;51.194;4.098;2022-12-16T04:12:25;20.83;;;19.10;;
14528;SDS011;7351;51.194;4.098;2022-12-16T04:25:19;21.50;;;15.17;;
14528;SDS011;7351;51.194;4.098;2022-12-16T04:27:49;16.00;;;14.40;;
14528;SDS011;7351;51.194;4.098;2022-12-16T04:33:39;15.50;;;13.87;;
14528;SDS011;7351;51.194;4.098;2022-12-16T04:39:54;14.07;;;12.40;;
14528;SDS011;7351;51.194;4.098;2022-12-16T04:42:40;17.27;;;11.50;;
14528;SDS011;7351;51.194;4.098;2022-12-16T04:48:39;13.53;;;11.43;;
14528;SDS011;7351;51.194;4.098;2022-12-16T04:51:35;15.87;;;11.60;;
14528;SDS011;7351;51.194;4.098;2022-12-16T04:57:52;18.60;;;11.63;;
14528;SDS011;7351;51.194;4.098;2022-12-16T05:03:41;10.87;;;9.80;;
14528;SDS011;7351;51.194;4.098;2022-12-16T05:06:32;9.83;;;9.03;;
14528;SDS011;7351;51.194;4.098;2022-12-16T05:12:54;9.90;;;9.10;;
14528;SDS011;7351;51.194;4.098;2022-12-16T05:15:40;11.53;;;10.27;;
14528;SDS011;7351;51.194;4.098;2022-12-16T05:18:25;13.90;;;10.33;;
14528;SDS011;7351;51.194;4.098;2022-12-16T05:21:14;12.43;;;11.07;;
14528;SDS011;7351;51.194;4.098;2022-12-16T05:23:59;13.53;;;9.20;;
14528;SDS011;7351;51.194;4.098;2022-12-16T05:26:54;11.73;;;10.20;;
14528;SDS011;7351;51.194;4.098;2022-12-16T05:33:06;14.33;;;9.00;;
14528;SDS011;7351;51.194;4.098;2022-12-16T05:39:17;14.93;;;8.73;;
14528;SDS011;7351;51.194;4.098;2022-12-16T05:42:02;12.77;;;10.60;;
14528;SDS011;7351;51.194;4.098;2022-12-16T05:44:47;16.60;;;9.60;;
14528;SDS011;7351;51.194;4.098;2022-12-16T05:47:33;12.80;;;10.87;;
14528;SDS011;7351;51.194;4.098;2022-12-16T05:53:22;14.63;;;11.53;;
14528;SDS011;7351;51.194;4.098;2022-12-16T05:58:47;20.07;;;13.03;;
14528;SDS011;7351;51.194;4.098;2022-12-16T06:01:32;14.63;;;13.03;;
14528;SDS011;7351;51.194;4.098;2022-12-16T06:04:17;15.30;;;12.73;;
14528;SDS011;7351;51.194;4.098;2022-12-16T06:07:03;18.83;;;13.13;;
14528;SDS011;7351;51.194;4.098;2022-12-16T06:09:48;18.47;;;14.60;;
14528;SDS011;7351;51.194;4.098;2022-12-16T06:12:33;16.03;;;14.33;;
14528;SDS011;7351;51.194;4.098;2022-12-16T06:15:17;16.83;;;14.90;;
14528;SDS011;7351;51.194;4.098;2022-12-16T06:18:02;18.80;;;13.60;;
14528;SDS011;7351;51.194;4.098;2022-12-16T06:20:57;18.30;;;13.97;;
14528;SDS011;7351;51.194;4.098;2022-12-16T06:27:07;19.37;;;15.63;;
14528;SDS011;7351;51.194;4.098;2022-12-16T06:38:55;30.53;;;22.57;;
14528;SDS011;7351;51.194;4.098;2022-12-16T06:41:41;21.97;;;19.83;;
14528;SDS011;7351;51.194;4.098;2022-12-16T06:44:30;31.60;;;20.57;;
14528;SDS011;7351;51.194;4.098;2022-12-16T06:56:35;18.50;;;14.63;;
14528;SDS011;7351;51.194;4.098;2022-12-16T06:59:20;18.70;;;16.73;;
14528;SDS011;7351;51.194;4.098;2022-12-16T07:02:06;18.07;;;14.43;;
14528;SDS011;7351;51.194;4.098;2022-12-16T07:04:51;16.17;;;14.53;;
14528;SDS011;7351;51.194;4.098;2022-12-16T07:07:38;17.20;;;15.43;;
14528;SDS011;7351;51.194;4.098;2022-12-16T07:13:52;22.60;;;14.63;;
14528;SDS011;7351;51.194;4.098;2022-12-16T07:20:00;19.43;;;17.43;;
14528;SDS011;7351;51.194;4.098;2022-12-16T07:22:45;20.73;;;16.80;;
14528;SDS011;7351;51.194;4.098;2022-12-16T07:25:30;19.57;;;17.30;;
14528;SDS011;7351;51.194;4.098;2022-12-16T07:28:18;20.97;;;18.60;;
14528;SDS011;7351;51.194;4.098;2022-12-16T07:31:03;26.03;;;17.27;;
14528;SDS011;7351;51.194;4.098;2022-12-16T07:33:47;21.33;;;17.40;;
14528;SDS011;7351;51.194;4.098;2022-12-16T07:39:56;23.20;;;17.93;;
14528;SDS011;7351;51.194;4.098;2022-12-16T07:46:04;17.27;;;14.30;;
14528;SDS011;7351;51.194;4.098;2022-12-16T07:52:17;19.40;;;16.80;;
14528;SDS011;7351;51.194;4.098;2022-12-16T07:58:07;22.07;;;17.97;;
14528;SDS011;7351;51.194;4.098;2022-12-16T08:00:52;25.73;;;19.10;;
14528;SDS011;7351;51.194;4.098;2022-12-16T08:03:37;21.13;;;18.10;;
14528;SDS011;7351;51.194;4.098;2022-12-16T08:06:23;27.53;;;18.17;;
14528;SDS011;7351;51.194;4.098;2022-12-16T08:09:08;23.43;;;18.53;;
14528;SDS011;7351;51.194;4.098;2022-12-16T08:11:54;23.67;;;19.30;;
14528;SDS011;7351;51.194;4.098;2022-12-16T08:21:04;27.97;;;23.23;;
14528;SDS011;7351;51.194;4.098;2022-12-16T08:27:13;29.73;;;23.27;;
14528;SDS011;7351;51.194;4.098;2022-12-16T08:29:58;27.70;;;22.67;;
14528;SDS011;7351;51.194;4.098;2022-12-16T08:32:43;27.83;;;21.13;;
14528;SDS011;7351;51.194;4.098;2022-12-16T08:42:16;25.43;;;21.67;;
14528;SDS011;7351;51.194;4.098;2022-12-16T08:45:00;23.87;;;21.33;;
14528;SDS011;7351;51.194;4.098;2022-12-16T08:47:45;26.23;;;21.40;;
14528;SDS011;7351;51.194;4.098;2022-12-16T08:57:16;30.03;;;23.43;;
14528;SDS011;7351;51.194;4.098;2022-12-16T09:03:24;27.53;;;19.77;;
14528;SDS011;7351;51.194;4.098;2022-12-16T09:06:08;24.27;;;21.90;;
14528;SDS011;7351;51.194;4.098;2022-12-16T09:08:53;27.77;;;21.30;;
14528;SDS011;7351;51.194;4.098;2022-12-16T09:11:37;25.07;;;22.50;;
14528;SDS011;7351;51.194;4.098;2022-12-16T09:14:23;25.87;;;21.97;;
14528;SDS011;7351;51.194;4.098;2022-12-16T09:20:32;27.07;;;24.37;;
14528;SDS011;7351;51.194;4.098;2022-12-16T09:23:17;28.30;;;23.37;;
14528;SDS011;7351;51.194;4.098;2022-12-16T09:26:01;44.20;;;28.73;;
14528;SDS011;7351;51.194;4.098;2022-12-16T09:28:49;39.17;;;29.97;;
14528;SDS011;7351;51.194;4.098;2022-12-16T09:34:30;26.10;;;23.30;;
14528;SDS011;7351;51.194;4.098;2022-12-16T09:37:15;25.50;;;23.07;;
14528;SDS011;7351;51.194;4.098;2022-12-16T09:39:59;28.23;;;22.33;;
14528;SDS011;7351;51.194;4.098;2022-12-16T09:42:46;27.73;;;19.90;;
14528;SDS011;7351;51.194;4.098;2022-12-16T09:45:37;26.00;;;19.97;;
14528;SDS011;7351;51.194;4.098;2022-12-16T09:48:28;24.63;;;22.23;;
14528;SDS011;7351;51.194;4.098;2022-12-16T09:51:21;25.53;;;21.90;;
14528;SDS011;7351;51.194;4.098;2022-12-16T09:54:08;22.20;;;19.77;;
14528;SDS011;7351;51.194;4.098;2022-12-16T09:56:57;21.07;;;19.03;;
14528;SDS011;7351;51.194;4.098;2022-12-16T10:03:07;26.33;;;19.07;;
14528;SDS011;7351;51.194;4.098;2022-12-16T10:06:25;22.63;;;20.17;;
14528;SDS011;7351;51.194;4.098;2022-12-16T10:09:49;20.93;;;16.53;;
14528;SDS011;7351;51.194;4.098;2022-12-16T12:20:35;8.90;;;7.97;;
14528;SDS011;7351;51.194;4.098;2022-12-16T13:02:27;10.97;;;9.83;;
14528;SDS011;7351;51.194;4.098;2022-12-16T13:05:17;11.27;;;10.00;;
14528;SDS011;7351;51.194;4.098;2022-12-16T13:11:29;10.37;;;7.63;;
14528;SDS011;7351;51.194;4.098;2022-12-16T13:27:43;11.50;;;7.23;;
14528;SDS011;7351;51.194;4.098;2022-12-16T13:33:52;17.43;;;14.53;;
14528;SDS011;7351;51.194;4.098;2022-12-16T13:36:39;10.10;;;8.90;;
14528;SDS011;7351;51.194;4.098;2022-12-16T13:59:47;12.57;;;11.37;;
14528;SDS011;7351;51.194;4.098;2022-12-16T14:11:20;10.80;;;7.63;;
14528;SDS011;7351;51.194;4.098;2022-12-16T14:17:42;11.00;;;8.07;;
14528;SDS011;7351;51.194;4.098;2022-12-16T14:20:37;12.40;;;8.73;;
14528;SDS011;7351;51.194;4.098;2022-12-16T14:27:11;13.10;;;9.67;;
14528;SDS011;7351;51.194;4.098;2022-12-16T14:32:54;15.93;;;8.57;;
14528;SDS011;7351;51.194;4.098;2022-12-16T14:35:39;14.93;;;9.20;;
14528;SDS011;7351;51.194;4.098;2022-12-16T14:38:34;15.80;;;9.30;;
14528;SDS011;7351;51.194;4.098;2022-12-16T14:41:19;15.93;;;9.60;;
14528;SDS011;7351;51.194;4.098;2022-12-16T14:44:14;17.03;;;10.23;;
14528;SDS011;7351;51.194;4.098;2022-12-16T14:47:00;12.17;;;10.97;;
14528;SDS011;7351;51.194;4.098;2022-12-16T14:49:50;12.23;;;10.43;;
14528;SDS011;7351;51.194;4.098;2022-12-16T14:52:35;13.23;;;10.30;;
14528;SDS011;7351;51.194;4.098;2022-12-16T14:55:17;20.40;;;16.40;;
14528;SDS011;7351;51.194;4.098;2022-12-16T15:04:30;13.00;;;10.37;;
14528;SDS011;7351;51.194;4.098;2022-12-16T15:07:17;15.43;;;12.33;;
14528;SDS011;7351;51.194;4.098;2022-12-16T15:10:02;18.47;;;11.23;;
14528;SDS011;7351;51.194;4.098;2022-12-16T15:16:15;12.37;;;11.03;;
14528;SDS011;7351;51.194;4.098;2022-12-16T15:19:08;17.27;;;15.57;;
14528;SDS011;7351;51.194;4.098;2022-12-16T15:28:02;18.63;;;15.63;;
14528;SDS011;7351;51.194;4.098;2022-12-16T15:37:34;28.43;;;22.20;;
14528;SDS011;7351;51.194;4.098;2022-12-16T15:43:45;28.23;;;17.73;;
14528;SDS011;7351;51.194;4.098;2022-12-16T15:46:30;21.30;;;17.50;;
14528;SDS011;7351;51.194;4.098;2022-12-16T15:49:17;22.40;;;19.97;;
14528;SDS011;7351;51.194;4.098;2022-12-16T15:55:21;20.97;;;16.47;;
14528;SDS011;7351;51.194;4.098;2022-12-16T15:58:12;17.97;;;15.50;;
14528;SDS011;7351;51.194;4.098;2022-12-16T16:04:14;44.60;;;33.53;;
14528;SDS011;7351;51.194;4.098;2022-12-16T16:07:02;35.43;;;29.67;;
14528;SDS011;7351;51.194;4.098;2022-12-16T16:19:44;29.97;;;22.17;;
14528;SDS011;7351;51.194;4.098;2022-12-16T16:22:29;22.80;;;19.33;;
14528;SDS011;7351;51.194;4.098;2022-12-16T16:32:53;25.53;;;20.47;;
14528;SDS011;7351;51.194;4.098;2022-12-16T16:42:19;24.83;;;20.73;;
14528;SDS011;7351;51.194;4.098;2022-12-16T16:51:50;29.53;;;23.33;;
14528;SDS011;7351;51.194;4.098;2022-12-16T16:58:13;29.23;;;24.47;;
14528;SDS011;7351;51.194;4.098;2022-12-16T17:13:55;31.37;;;27.17;;
14528;SDS011;7351;51.194;4.098;2022-12-16T17:16:40;28.43;;;25.33;;
14528;SDS011;7351;51.194;4.098;2022-12-16T17:19:29;32.03;;;24.40;;
14528;SDS011;7351;51.194;4.098;2022-12-16T17:29:04;24.10;;;20.73;;
14528;SDS011;7351;51.194;4.098;2022-12-16T17:42:01;24.03;;;21.10;;
14528;SDS011;7351;51.194;4.098;2022-12-16T17:48:09;27.73;;;21.53;;
14528;SDS011;7351;51.194;4.098;2022-12-16T17:54:16;27.70;;;21.67;;
14528;SDS011;7351;51.194;4.098;2022-12-16T17:57:01;27.37;;;20.93;;
14528;SDS011;7351;51.194;4.098;2022-12-16T18:09:55;28.27;;;25.27;;
14528;SDS011;7351;51.194;4.098;2022-12-16T18:16:03;30.93;;;27.67;;
14528;SDS011;7351;51.194;4.098;2022-12-16T18:21:53;36.87;;;33.13;;
14528;SDS011;7351;51.194;4.098;2022-12-16T18:24:38;43.27;;;37.23;;
14528;SDS011;7351;51.194;4.098;2022-12-16T18:27:27;36.40;;;32.33;;
14528;SDS011;7351;51.194;4.098;2022-12-16T18:30:12;31.07;;;28.03;;
14528;SDS011;7351;51.194;4.098;2022-12-16T18:32:57;32.40;;;28.63;;
14528;SDS011;7351;51.194;4.098;2022-12-16T18:35:41;53.53;;;37.43;;
14528;SDS011;7351;51.194;4.098;2022-12-16T18:38:26;41.53;;;35.20;;
14528;SDS011;7351;51.194;4.098;2022-12-16T18:41:13;44.30;;;40.00;;
14528;SDS011;7351;51.194;4.098;2022-12-16T18:44:09;40.23;;;35.80;;
14528;SDS011;7351;51.194;4.098;2022-12-16T18:46:55;39.27;;;34.53;;
14528;SDS011;7351;51.194;4.098;2022-12-16T18:49:41;44.73;;;39.93;;
14528;SDS011;7351;51.194;4.098;2022-12-16T18:52:26;35.70;;;32.10;;
14528;SDS011;7351;51.194;4.098;2022-12-16T18:55:11;41.13;;;34.93;;
14528;SDS011;7351;51.194;4.098;2022-12-16T18:57:55;33.73;;;30.30;;
14528;SDS011;7351;51.194;4.098;2022-12-16T19:04:10;31.67;;;28.57;;
14528;SDS011;7351;51.194;4.098;2022-12-16T19:06:55;44.17;;;39.80;;
14528;SDS011;7351;51.194;4.098;2022-12-16T19:09:39;41.93;;;37.43;;
14528;SDS011;7351;51.194;4.098;2022-12-16T19:12:24;45.53;;;39.67;;
14528;SDS011;7351;51.194;4.098;2022-12-16T19:15:09;56.70;;;50.50;;
14528;SDS011;7351;51.194;4.098;2022-12-16T19:17:55;63.93;;;54.83;;
14528;SDS011;7351;51.194;4.098;2022-12-16T19:20:49;74.63;;;64.27;;
14528;SDS011;7351;51.194;4.098;2022-12-16T19:23:35;87.00;;;77.03;;
14528;SDS011;7351;51.194;4.098;2022-12-16T19:26:20;76.60;;;68.83;;
14528;SDS011;7351;51.194;4.098;2022-12-16T19:29:04;77.37;;;70.00;;
14528;SDS011;7351;51.194;4.098;2022-12-16T19:31:49;77.60;;;68.27;;
14528;SDS011;7351;51.194;4.098;2022-12-16T19:34:34;76.57;;;68.07;;
14528;SDS011;7351;51.194;4.098;2022-12-16T19:40:27;79.47;;;70.80;;
14528;SDS011;7351;51.194;4.098;2022-12-16T19:43:12;93.40;;;83.30;;
14528;SDS011;7351;51.194;4.098;2022-12-16T19:45:58;85.87;;;76.90;;
14528;SDS011;7351;51.194;4.098;2022-12-16T19:48:43;91.60;;;81.23;;
14528;SDS011;7351;51.194;4.098;2022-12-16T19:51:27;86.43;;;76.07;;
14528;SDS011;7351;51.194;4.098;2022-12-16T19:54:13;70.47;;;63.13;;
14528;SDS011;7351;51.194;4.098;2022-12-16T19:56:58;65.07;;;56.50;;
14528;SDS011;7351;51.194;4.098;2022-12-16T19:59:42;62.27;;;52.80;;
14528;SDS011;7351;51.194;4.098;2022-12-16T20:02:27;59.10;;;52.30;;
14528;SDS011;7351;51.194;4.098;2022-12-16T20:05:12;58.03;;;51.77;;
14528;SDS011;7351;51.194;4.098;2022-12-16T20:11:20;55.73;;;50.20;;
14528;SDS011;7351;51.194;4.098;2022-12-16T20:14:04;59.70;;;53.43;;
14528;SDS011;7351;51.194;4.098;2022-12-16T20:16:50;66.13;;;59.27;;
14528;SDS011;7351;51.194;4.098;2022-12-16T20:19:35;58.23;;;51.87;;
14528;SDS011;7351;51.194;4.098;2022-12-16T20:22:25;65.07;;;56.37;;
14528;SDS011;7351;51.194;4.098;2022-12-16T20:25:18;70.60;;;63.00;;
14528;SDS011;7351;51.194;4.098;2022-12-16T20:34:49;63.50;;;57.07;;
14528;SDS011;7351;51.194;4.098;2022-12-16T20:37:33;65.77;;;58.97;;
14528;SDS011;7351;51.194;4.098;2022-12-16T20:40:19;64.20;;;57.70;;
14528;SDS011;7351;51.194;4.098;2022-12-16T20:43:03;64.63;;;55.60;;
14528;SDS011;7351;51.194;4.098;2022-12-16T20:45:47;59.17;;;52.93;;
14528;SDS011;7351;51.194;4.098;2022-12-16T20:48:34;60.77;;;54.50;;
14528;SDS011;7351;51.194;4.098;2022-12-16T20:51:19;60.90;;;54.30;;
14528;SDS011;7351;51.194;4.098;2022-12-16T20:54:04;61.27;;;54.87;;
14528;SDS011;7351;51.194;4.098;2022-12-16T20:56:48;59.97;;;53.80;;
14528;SDS011;7351;51.194;4.098;2022-12-16T20:59:34;65.57;;;59.20;;
14528;SDS011;7351;51.194;4.098;2022-12-16T21:02:18;67.77;;;56.63;;
14528;SDS011;7351;51.194;4.098;2022-12-16T21:05:03;62.57;;;56.07;;
14528;SDS011;7351;51.194;4.098;2022-12-16T21:07:49;61.73;;;55.27;;
14528;SDS011;7351;51.194;4.098;2022-12-16T21:13:56;79.27;;;66.10;;
14528;SDS011;7351;51.194;4.098;2022-12-16T21:16:41;105.57;;;81.67;;
14528;SDS011;7351;51.194;4.098;2022-12-16T21:19:25;67.23;;;59.67;;
14528;SDS011;7351;51.194;4.098;2022-12-16T21:22:10;74.83;;;63.77;;
14528;SDS011;7351;51.194;4.098;2022-12-16T21:24:56;67.10;;;59.57;;
14528;SDS011;7351;51.194;4.098;2022-12-16T21:27:40;68.37;;;58.73;;
14528;SDS011;7351;51.194;4.098;2022-12-16T21:30:25;62.20;;;53.70;;
14528;SDS011;7351;51.194;4.098;2022-12-16T21:33:14;59.63;;;53.17;;
14528;SDS011;7351;51.194;4.098;2022-12-16T21:35:59;57.30;;;50.33;;
14528;SDS011;7351;51.194;4.098;2022-12-16T21:38:49;52.47;;;45.20;;
14528;SDS011;7351;51.194;4.098;2022-12-16T21:41:35;50.87;;;44.07;;
14528;SDS011;7351;51.194;4.098;2022-12-16T21:44:19;53.17;;;46.30;;
14528;SDS011;7351;51.194;4.098;2022-12-16T21:47:03;51.13;;;45.83;;
14528;SDS011;7351;51.194;4.098;2022-12-16T21:49:48;49.00;;;44.00;;
14528;SDS011;7351;51.194;4.098;2022-12-16T21:52:32;50.17;;;44.83;;
14528;SDS011;7351;51.194;4.098;2022-12-16T21:55:16;49.80;;;41.93;;
14528;SDS011;7351;51.194;4.098;2022-12-16T21:58:02;51.00;;;46.03;;
14528;SDS011;7351;51.194;4.098;2022-12-16T22:00:52;53.87;;;46.33;;
14528;SDS011;7351;51.194;4.098;2022-12-16T22:03:37;49.37;;;44.33;;
14528;SDS011;7351;51.194;4.098;2022-12-16T22:06:21;46.47;;;41.63;;
14528;SDS011;7351;51.194;4.098;2022-12-16T22:09:06;48.73;;;43.63;;
14528;SDS011;7351;51.194;4.098;2022-12-16T22:11:50;46.33;;;41.87;;
14528;SDS011;7351;51.194;4.098;2022-12-16T22:14:36;50.83;;;45.57;;
14528;SDS011;7351;51.194;4.098;2022-12-16T22:17:20;55.40;;;47.43;;
14528;SDS011;7351;51.194;4.098;2022-12-16T22:20:05;51.10;;;46.07;;
14528;SDS011;7351;51.194;4.098;2022-12-16T22:22:50;51.57;;;45.77;;
14528;SDS011;7351;51.194;4.098;2022-12-16T22:25:34;81.13;;;57.30;;
14528;SDS011;7351;51.194;4.098;2022-12-16T22:28:18;69.37;;;55.43;;
14528;SDS011;7351;51.194;4.098;2022-12-16T22:31:04;67.70;;;54.17;;
14528;SDS011;7351;51.194;4.098;2022-12-16T22:33:48;68.70;;;55.77;;
14528;SDS011;7351;51.194;4.098;2022-12-16T22:36:33;62.43;;;55.73;;
14528;SDS011;7351;51.194;4.098;2022-12-16T22:39:18;58.83;;;52.60;;
14528;SDS011;7351;51.194;4.098;2022-12-16T22:42:02;59.13;;;52.33;;
14528;SDS011;7351;51.194;4.098;2022-12-16T22:44:47;57.33;;;51.03;;
14528;SDS011;7351;51.194;4.098;2022-12-16T22:47:32;57.17;;;50.80;;
14528;SDS011;7351;51.194;4.098;2022-12-16T22:50:17;64.07;;;53.13;;
14528;SDS011;7351;51.194;4.098;2022-12-16T22:53:01;65.30;;;53.30;;
14528;SDS011;7351;51.194;4.098;2022-12-16T22:55:48;55.93;;;49.53;;
14528;SDS011;7351;51.194;4.098;2022-12-16T22:58:33;59.37;;;50.77;;
14528;SDS011;7351;51.194;4.098;2022-12-16T23:01:17;61.50;;;54.43;;
14528;SDS011;7351;51.194;4.098;2022-12-16T23:04:03;68.97;;;56.57;;
14528;SDS011;7351;51.194;4.098;2022-12-16T23:06:48;63.53;;;56.50;;
14528;SDS011;7351;51.194;4.098;2022-12-16T23:09:33;74.33;;;60.57;;
14528;SDS011;7351;51.194;4.098;2022-12-16T23:12:17;76.93;;;62.63;;
14528;SDS011;7351;51.194;4.098;2022-12-16T23:15:02;73.03;;;65.13;;
14528;SDS011;7351;51.194;4.098;2022-12-16T23:17:47;63.83;;;57.07;;
14528;SDS011;7351;51.194;4.098;2022-12-16T23:20:33;68.53;;;59.93;;
14528;SDS011;7351;51.194;4.098;2022-12-16T23:23:17;61.47;;;55.53;;
14528;SDS011;7351;51.194;4.098;2022-12-16T23:26:01;64.10;;;56.23;;
14528;SDS011;7351;51.194;4.098;2022-12-16T23:28:48;58.23;;;52.17;;
14528;SDS011;7351;51.194;4.098;2022-12-16T23:31:38;55.80;;;49.80;;
14528;SDS011;7351;51.194;4.098;2022-12-16T23:34:23;60.83;;;52.53;;
14528;SDS011;7351;51.194;4.098;2022-12-16T23:37:09;60.00;;;53.70;;
14528;SDS011;7351;51.194;4.098;2022-12-16T23:39:53;63.73;;;56.87;;
14528;SDS011;7351;51.194;4.098;2022-12-16T23:42:37;65.13;;;57.90;;
14528;SDS011;7351;51.194;4.098;2022-12-16T23:45:21;86.83;;;68.90;;
14528;SDS011;7351;51.194;4.098;2022-12-16T23:48:06;82.57;;;73.63;;
14528;SDS011;7351;51.194;4.098;2022-12-16T23:50:58;90.30;;;81.27;;
14528;SDS011;7351;51.194;4.098;2022-12-16T23:53:49;89.13;;;80.17;;
14528;SDS011;7351;51.194;4.098;2022-12-16T23:56:33;87.53;;;76.43;;
14528;SDS011;7351;51.194;4.098;2022-12-16T23:59:18;79.70;;;71.27;;
